Time;durP1;ratioP1;P1;durP2;ratioP2;P2;SDS_P1;SDS_P2;PMS_P1;PMS_P2;Temp;Humidity;BMP_temperature;BMP_pressure;BME280_temperature;BME280_humidity;BME280_pressure;Samples;Min_cycle;Max_cycle;Signal;HPM_P1;HPM_P2
2023/07/15 00:06:57;;;;;;;13.73;7.95;;;;;;;26.44;100.00;100626.75;21237827;27;20047;-75
2023/07/15 00:17:22;;;;;;;18.45;8.25;;;;;;;26.33;100.00;100623.69;21221878;27;20149;-75
2023/07/15 00:27:46;;;;;;;13.07;7.80;;;;;;;26.37;100.00;100623.47;21198501;27;20162;-75
2023/07/15 00:38:11;;;;;;;14.95;7.85;;;;;;;26.02;100.00;100616.25;21134362;28;20040;-75
2023/07/15 00:48:38;;;;;;;15.25;9.05;;;;;;;26.22;100.00;100621.50;21148524;28;20396;-75
2023/07/15 00:59:01;;;;;;;18.23;8.50;;;;;;;26.14;100.00;100619.19;21131076;28;20051;-75
2023/07/15 01:09:26;;;;;;;12.45;8.27;;;;;;;25.88;100.00;100616.94;21147054;28;20058;-75
2023/07/15 01:19:49;;;;;;;13.45;9.00;;;;;;;25.89;100.00;100618.69;21131447;28;20054;-75
2023/07/15 01:30:15;;;;;;;19.63;9.27;;;;;;;25.72;100.00;100615.94;21187962;27;20088;-75
2023/07/15 01:40:38;;;;;;;13.68;8.95;;;;;;;25.34;100.00;100599.72;21213565;27;20432;-75
2023/07/15 01:51:02;;;;;;;15.55;10.63;;;;;;;25.75;100.00;100594.16;21227891;27;20551;-75
2023/07/15 02:01:25;;;;;;;16.33;9.55;;;;;;;25.55;100.00;100597.81;21213395;27;20055;-75
2023/07/15 02:11:49;;;;;;;15.63;8.75;;;;;;;25.49;100.00;100586.41;21222962;27;20105;-76
2023/07/15 02:22:13;;;;;;;15.40;8.75;;;;;;;25.36;100.00;100595.13;21149482;28;20074;-75
2023/07/15 02:32:39;;;;;;;13.10;8.77;;;;;;;25.35;100.00;100593.34;21147611;28;20050;-75
2023/07/15 02:43:01;;;;;;;13.82;9.40;;;;;;;25.36;100.00;100594.22;21137605;28;20051;-75
2023/07/15 02:53:26;;;;;;;14.73;8.48;;;;;;;24.94;100.00;100587.19;21138099;28;20055;-75
2023/07/15 03:03:49;;;;;;;17.23;9.00;;;;;;;24.85;100.00;100600.25;21151586;28;20044;-75
2023/07/15 03:13:52;;;;;;;13.40;8.75;;;;;;;24.97;100.00;100600.59;21172432;27;20053;-75
2023/07/15 03:24:15;;;;;;;14.45;9.13;;;;;;;25.02;100.00;100600.34;21214196;27;20055;-75
2023/07/15 03:34:39;;;;;;;14.77;9.15;;;;;;;25.07;100.00;100609.16;21120943;28;20139;-75
2023/07/15 03:45:06;;;;;;;14.70;9.20;;;;;;;25.04;100.00;100613.81;21120937;28;20044;-75
2023/07/15 03:55:31;;;;;;;17.45;7.53;;;;;;;25.17;100.00;100620.38;21133882;28;20047;-75
2023/07/15 04:05:54;;;;;;;12.52;7.93;;;;;;;25.90;100.00;100625.84;21121744;28;20491;-75
2023/07/15 04:15:59;;;;;;;16.85;8.07;;;;;;;26.38;100.00;100632.47;21172256;28;20538;-75
2023/07/15 04:26:22;;;;;;;17.55;7.53;;;;;;;26.93;100.00;100633.16;21192986;27;20503;-75
2023/07/15 04:36:46;;;;;;;14.85;7.72;;;;;;;27.60;100.00;100643.00;21171292;27;20050;-76
2023/07/15 04:47:09;;;;;;;15.43;6.93;;;;;;;28.30;100.00;100653.38;21233459;27;20036;-75
2023/07/15 04:57:33;;;;;;;15.82;5.97;;;;;;;29.09;100.00;100655.81;21232141;27;20059;-75
2023/07/15 05:08:03;;;;;;;16.17;5.43;;;;;;;29.91;100.00;100656.81;21212135;27;20047;-76
2023/07/15 05:18:23;;;;;;;14.63;5.15;;;;;;;30.74;99.65;100660.28;21156353;28;20060;-76
2023/07/15 05:28:39;;;;;;;12.73;4.50;;;;;;;31.56;89.78;100657.13;21202157;27;20065;-76
2023/07/15 05:39:03;;;;;;;13.43;4.75;;;;;;;32.41;72.46;100651.59;21242668;27;20054;-77
2023/07/15 05:49:25;;;;;;;12.52;4.88;;;;;;;33.16;56.27;100654.78;21241745;27;20039;-76
2023/07/15 05:59:49;;;;;;;12.20;4.95;;;;;;;33.96;47.87;100665.59;21226814;27;20092;-76
2023/07/15 06:10:11;;;;;;;18.77;5.73;;;;;;;34.92;44.31;100665.63;21216802;27;20211;-76
2023/07/15 06:20:18;;;;;;;14.25;4.72;;;;;;;35.72;39.66;100682.25;21220775;27;20474;-76
2023/07/15 06:30:41;;;;;;;11.38;5.43;;;;;;;36.51;37.86;100683.13;21143542;27;20050;-76
2023/07/15 06:41:06;;;;;;;11.97;5.43;;;;;;;37.02;36.02;100688.38;21124238;28;20051;-76
2023/07/15 06:51:29;;;;;;;12.85;4.80;;;;;;;37.37;34.48;100690.44;21120722;28;20047;-76
2023/07/15 07:01:53;;;;;;;9.95;5.07;;;;;;;37.58;33.02;100688.38;21134640;28;20051;-76
2023/07/15 07:12:15;;;;;;;;;;;;;;;37.74;32.76;100684.97;21136993;28;20519;-76
2023/07/15 07:22:39;;;;;;;14.43;5.22;;;;;;;38.07;32.55;100683.50;21136198;28;20411;-76
2023/07/15 07:32:44;;;;;;;9.60;5.05;;;;;;;38.56;32.11;100679.38;21222605;27;20046;-76
2023/07/15 07:43:08;;;;;;;13.10;5.07;;;;;;;38.91;31.35;100692.28;21218996;28;20550;-76
2023/07/15 07:53:30;;;;;;;8.88;5.07;;;;;;;39.13;31.10;100693.66;21219266;28;20104;-76
2023/07/15 08:03:55;;;;;;;16.77;5.28;;;;;;;39.22;30.63;100710.16;21218429;28;20051;-77
2023/07/15 08:14:18;;;;;;;11.38;4.80;;;;;;;39.58;30.47;100713.69;21222076;27;20054;-76
2023/07/15 08:24:22;;;;;;;11.80;4.87;;;;;;;39.88;29.23;100705.88;21250816;27;20085;-76
2023/07/15 08:34:58;;;;;;;16.05;4.55;;;;;;;40.18;29.24;100708.06;21235184;27;20051;-76
2023/07/15 08:45:25;;;;;;;13.85;4.78;;;;;;;40.25;28.92;100713.81;21247923;27;20057;-76
2023/07/15 08:55:49;;;;;;;14.88;5.07;;;;;;;40.49;28.46;100706.44;21247127;27;20540;-76
2023/07/15 09:06:15;;;;;;;11.52;5.05;;;;;;;40.65;27.91;100707.47;21231952;27;20043;-77
2023/07/15 09:16:27;;;;;;;8.88;4.95;;;;;;;40.83;27.60;100703.53;21286745;27;20465;-76
2023/07/15 09:26:54;;;;;;;11.77;5.63;;;;;;;41.05;27.56;100707.50;21288018;27;20047;-76
2023/07/15 09:37:28;;;;;;;12.68;5.20;;;;;;;40.99;27.48;100720.16;21229542;27;20053;-77
2023/07/15 09:47:53;;;;;;;11.33;5.10;;;;;;;41.37;27.10;100726.03;21214414;27;20058;-77
2023/07/15 09:58:22;;;;;;;10.00;4.75;;;;;;;41.40;26.87;100728.47;21213164;27;20541;-77
2023/07/15 10:08:48;;;;;;;10.75;4.93;;;;;;;41.60;26.76;100723.41;21212471;27;20478;-77
2023/07/15 10:19:39;;;;;;;13.43;5.70;;;;;;;41.59;26.94;100725.31;21162290;27;20546;-77
2023/07/15 10:30:31;;;;;;;15.98;8.60;;;;;;;41.70;26.58;100730.47;21177978;27;20039;-77
2023/07/15 10:40:57;;;;;;;10.65;5.00;;;;;;;41.56;26.29;100722.88;21214391;27;20055;-76
2023/07/15 10:51:22;;;;;;;12.48;4.82;;;;;;;41.77;26.11;100728.72;21163874;27;20054;-76
2023/07/15 11:01:45;;;;;;;11.75;4.70;;;;;;;41.82;26.55;100725.38;21120980;28;20618;-76
2023/07/15 11:12:12;;;;;;;8.88;4.65;;;;;;;41.78;27.10;100733.22;21141380;27;20069;-76
2023/07/15 11:22:35;;;;;;;10.50;4.85;;;;;;;41.92;27.31;100722.44;21304553;27;20053;-76
2023/07/15 11:33:00;;;;;;;10.45;4.63;;;;;;;41.45;27.45;100723.25;21303781;27;20088;-76
2023/07/15 11:43:24;;;;;;;13.13;5.05;;;;;;;41.39;27.52;100729.50;21269261;27;20054;-77
2023/07/15 11:53:48;;;;;;;9.98;4.93;;;;;;;40.90;27.84;100718.41;21224721;27;20047;-77
2023/07/15 12:04:14;;;;;;;11.32;6.00;;;;;;;40.91;27.87;100714.63;21216374;28;20058;-77
2023/07/15 12:14:38;;;;;;;11.13;5.50;;;;;;;40.76;28.01;100721.91;21201360;27;20406;-76
2023/07/15 12:25:01;;;;;;;11.68;5.63;;;;;;;40.87;27.93;100701.28;21227880;27;20050;-77
2023/07/15 12:35:25;;;;;;;10.80;5.50;;;;;;;41.17;27.61;100697.81;21303745;27;20061;-77
2023/07/15 12:45:48;;;;;;;17.83;5.95;;;;;;;41.50;27.21;100678.34;21302810;27;20049;-77
2023/07/15 12:56:13;;;;;;;;;;;;;;;41.55;26.51;100668.44;21296184;27;20095;-78
2023/07/15 13:06:36;;;;;;;12.43;5.90;;;;;;;41.48;26.56;100669.34;21317563;27;20009;-77
2023/07/15 13:17:00;;;;;;;12.68;5.82;;;;;;;41.38;26.87;100661.22;21301655;27;20436;-78
2023/07/15 13:27:22;;;;;;;12.73;6.10;;;;;;;41.30;27.09;100655.69;21300228;27;20095;-78
2023/07/15 13:37:47;;;;;;;13.17;5.63;;;;;;;41.08;27.24;100659.22;21299441;27;20099;-77
2023/07/15 13:48:09;;;;;;;19.48;6.35;;;;;;;40.58;27.64;100646.38;21314877;27;20043;-78
2023/07/15 13:58:34;;;;;;;13.85;6.75;;;;;;;40.64;27.71;100648.44;21312998;27;20055;-77
2023/07/15 14:08:57;;;;;;;17.10;6.25;;;;;;;40.84;27.49;100649.88;21312605;27;20043;-77
2023/07/15 14:19:21;;;;;;;18.30;6.13;;;;;;;40.86;27.63;100631.16;21311224;27;20554;-77
2023/07/15 14:29:43;;;;;;;14.93;6.22;;;;;;;40.64;27.52;100626.28;21309104;27;20070;-77
2023/07/15 14:40:09;;;;;;;19.87;6.23;;;;;;;40.73;27.44;100622.53;21309395;27;20042;-77
2023/07/15 14:50:31;;;;;;;17.50;7.28;;;;;;;40.57;27.61;100619.72;21309190;27;20042;-78
2023/07/15 15:00:55;;;;;;;15.20;7.03;;;;;;;40.34;27.28;100602.97;21307972;27;20038;-78
2023/07/15 15:11:18;;;;;;;12.35;6.03;;;;;;;39.95;27.65;100597.19;21307575;27;20042;-78
2023/07/15 15:21:43;;;;;;;12.55;6.60;;;;;;;39.20;28.59;100600.81;21291567;27;20043;-78
2023/07/15 15:32:07;;;;;;;14.07;6.50;;;;;;;38.52;28.95;100607.06;21306207;27;20043;-78
2023/07/15 15:42:31;;;;;;;11.90;6.15;;;;;;;37.53;30.26;100605.25;21305547;27;20051;-77
2023/07/15 15:52:53;;;;;;;12.23;5.70;;;;;;;37.04;31.38;100623.84;21305569;27;20432;-78
2023/07/15 16:03:18;;;;;;;18.17;6.88;;;;;;;36.59;32.62;100614.50;21279875;27;20599;-76
2023/07/15 16:13:40;;;;;;;11.88;6.40;;;;;;;36.17;33.36;100611.22;21177771;27;20068;-75
2023/07/15 16:24:05;;;;;;;17.08;6.75;;;;;;;35.78;34.78;100621.22;21031808;28;20487;-77
2023/07/15 16:34:28;;;;;;;12.13;6.95;;;;;;;33.48;57.13;100629.41;21145387;28;20052;-76
2023/07/15 16:44:53;;;;;;;18.92;7.70;;;;;;;33.67;52.79;100637.00;21131622;28;20092;-76
2023/07/15 16:55:15;;;;;;;35.13;11.35;;;;;;;33.74;51.75;100635.53;21131621;28;20044;-76
2023/07/15 17:05:40;;;;;;;18.77;8.20;;;;;;;33.57;50.27;100643.22;21142798;28;20595;-75
2023/07/15 17:16:02;;;;;;;18.33;8.82;;;;;;;33.56;49.54;100646.09;21179296;27;20058;-74
2023/07/15 17:26:26;;;;;;;14.02;8.50;;;;;;;33.27;49.82;100653.97;21190624;27;20047;-75
2023/07/15 17:36:48;;;;;;;16.30;8.95;;;;;;;33.07;50.57;100650.06;21212888;27;20039;-74
2023/07/15 17:47:13;;;;;;;23.98;10.65;;;;;;;32.83;54.14;100663.78;21226841;27;20043;-75
2023/07/15 17:57:36;;;;;;;15.38;9.07;;;;;;;32.77;53.41;100672.47;21225522;27;20104;-74
2023/07/15 18:08:00;;;;;;;16.88;9.60;;;;;;;32.56;56.12;100663.19;21225573;27;20047;-74
2023/07/15 18:18:23;;;;;;;17.92;9.50;;;;;;;32.37;58.34;100661.00;21206736;27;20086;-74
2023/07/15 18:28:48;;;;;;;20.15;9.55;;;;;;;32.16;61.63;100667.25;21226586;27;20390;-74
2023/07/15 18:39:11;;;;;;;18.33;11.07;;;;;;;32.01;63.51;100678.31;21217111;27;20480;-74
2023/07/15 18:49:35;;;;;;;17.92;11.00;;;;;;;31.92;63.30;100675.38;21124097;28;20044;-74
2023/07/15 18:59:58;;;;;;;18.02;10.55;;;;;;;31.84;63.38;100686.88;21136639;28;20036;-74
2023/07/15 19:10:22;;;;;;;22.15;10.30;;;;;;;31.71;64.63;100693.34;21136313;28;20302;-74
2023/07/15 19:20:44;;;;;;;17.13;10.45;;;;;;;31.63;66.67;100700.28;21050782;28;20048;-75
2023/07/15 19:30:49;;;;;;;14.60;10.02;;;;;;;31.58;67.92;100688.75;21126528;28;20039;-74
2023/07/15 19:41:14;;;;;;;18.92;10.48;;;;;;;31.41;68.36;100693.72;21147941;28;20043;-73
2023/07/15 19:51:38;;;;;;;19.23;10.80;;;;;;;31.29;70.37;100692.75;21147788;28;20309;-75
2023/07/15 20:02:00;;;;;;;16.92;9.57;;;;;;;31.10;73.33;100693.19;21134570;28;20167;-75
2023/07/15 20:12:25;;;;;;;16.55;10.82;;;;;;;31.00;75.40;100696.63;21170343;27;20047;-75
2023/07/15 20:22:48;;;;;;;16.45;10.27;;;;;;;30.83;78.95;100692.38;21233156;27;20100;-75
2023/07/15 20:33:12;;;;;;;21.52;11.20;;;;;;;30.83;77.93;100695.09;21217229;27;20050;-75
2023/07/15 20:43:35;;;;;;;14.73;9.80;;;;;;;30.80;76.35;100690.72;21218984;27;20051;-76
2023/07/15 20:53:59;;;;;;;17.67;10.40;;;;;;;30.72;77.04;100687.63;21232983;27;20047;-76
2023/07/15 21:04:22;;;;;;;19.13;9.57;;;;;;;30.66;74.57;100679.88;21216854;27;20578;-76
2023/07/15 21:14:46;;;;;;;17.77;10.88;;;;;;;30.60;74.12;100669.41;21229448;27;20047;-76
2023/07/15 21:25:09;;;;;;;16.25;10.95;;;;;;;30.53;75.29;100659.03;21196922;27;20051;-76
2023/07/15 21:35:35;;;;;;;15.90;10.65;;;;;;;30.47;74.90;100649.41;21140427;28;20059;-76
2023/07/15 21:45:57;;;;;;;16.20;10.20;;;;;;;30.46;75.15;100645.81;21143159;28;20052;-76
2023/07/15 21:56:21;;;;;;;19.38;10.18;;;;;;;30.44;75.60;100644.19;21142923;28;20392;-76
2023/07/15 22:06:44;;;;;;;21.20;10.20;;;;;;;30.37;77.19;100637.41;21114861;28;20043;-76
2023/07/15 22:17:08;;;;;;;21.40;10.82;;;;;;;30.29;77.31;100623.41;21185072;27;20058;-76
2023/07/15 22:27:31;;;;;;;17.65;9.27;;;;;;;30.25;76.65;100611.88;21212241;27;20054;-76
2023/07/15 22:37:55;;;;;;;20.52;10.38;;;;;;;30.27;76.03;100599.00;21225165;27;20043;-76
2023/07/15 22:48:18;;;;;;;16.77;9.80;;;;;;;30.20;76.16;100603.13;21237734;27;20540;-75
2023/07/15 22:58:42;;;;;;;18.27;9.50;;;;;;;30.19;74.69;100595.09;21223076;27;20544;-76
2023/07/15 23:09:04;;;;;;;17.65;9.65;;;;;;;30.14;75.84;100597.22;21236077;27;20051;-76
2023/07/15 23:19:28;;;;;;;17.13;9.13;;;;;;;30.10;74.35;100591.13;21302034;27;20061;-76
2023/07/15 23:29:51;;;;;;;16.05;9.35;;;;;;;30.03;73.80;100585.22;21237978;27;20440;-76
2023/07/15 23:40:03;;;;;;;18.88;9.55;;;;;;;29.97;74.62;100569.31;21235449;27;20050;-76
2023/07/15 23:50:26;;;;;;;14.77;9.48;;;;;;;29.95;74.85;100567.66;21192455;27;20050;-76
